Time;durP1;ratioP1;P1;durP2;ratioP2;P2;SDS_P1;SDS_P2;PMS_P1;PMS_P2;Temp;Humidity;BMP_temperature;BMP_pressure;BME280_temperature;BME280_humidity;BME280_pressure;Samples;Min_cycle;Max_cycle;Signal;HPM_P1;HPM_P2
2021/10/25 00:02:18;;;;;;;7.85;5.35;;;7.30;99.90;;;;;;6216296;23;20004;-89
2021/10/25 00:04:45;;;;;;;8.15;5.45;;;7.30;99.90;;;;;;6217296;23;20011;-89
2021/10/25 00:07:11;;;;;;;7.38;5.47;;;7.20;99.90;;;;;;6217687;23;20000;-90
2021/10/25 00:09:39;;;;;;;8.65;5.53;;;7.20;99.90;;;;;;6216975;23;20024;-89
2021/10/25 00:12:05;;;;;;;9.45;6.20;;;7.20;99.90;;;;;;6217881;23;20008;-90
2021/10/25 00:14:33;;;;;;;7.95;6.15;;;7.20;99.90;;;;;;6214588;23;20000;-90
2021/10/25 00:16:59;;;;;;;9.68;5.47;;;7.20;99.90;;;;;;6216595;23;20010;-88
2021/10/25 00:19:26;;;;;;;7.15;5.50;;;7.20;99.90;;;;;;6217013;23;20000;-90
2021/10/25 00:21:53;;;;;;;8.80;6.78;;;7.10;99.90;;;;;;6216498;23;20004;-89
2021/10/25 00:24:20;;;;;;;8.82;6.10;;;7.10;99.90;;;;;;6217261;23;19996;-88
2021/10/25 00:26:47;;;;;;;8.05;5.55;;;7.10;99.90;;;;;;6217411;23;20049;-88
2021/10/25 00:29:14;;;;;;;7.32;5.25;;;7.10;99.90;;;;;;6216604;23;20004;-90
2021/10/25 00:31:40;;;;;;;7.60;5.40;;;7.10;99.90;;;;;;6191949;23;20012;-89
2021/10/25 00:34:06;;;;;;;7.88;5.93;;;7.00;99.90;;;;;;6216423;23;20010;-89
2021/10/25 00:36:33;;;;;;;6.30;4.70;;;6.90;99.90;;;;;;6217172;23;20364;-89
2021/10/25 00:38:59;;;;;;;11.35;5.20;;;6.90;99.90;;;;;;6216922;23;20058;-89
2021/10/25 00:41:25;;;;;;;7.60;4.60;;;6.90;99.90;;;;;;6217379;23;20008;-89
2021/10/25 00:43:51;;;;;;;6.38;4.63;;;6.80;99.90;;;;;;6217556;23;20024;-89
2021/10/25 00:46:18;;;;;;;7.15;4.60;;;6.70;99.90;;;;;;6245128;22;20016;-90
2021/10/25 00:48:46;;;;;;;6.50;4.65;;;6.70;99.90;;;;;;6215657;23;20019;-90
2021/10/25 00:51:12;;;;;;;6.07;4.18;;;6.70;99.90;;;;;;6214044;23;20004;-90
2021/10/25 00:53:40;;;;;;;7.10;5.22;;;6.70;99.90;;;;;;6190183;23;20100;-89
2021/10/25 00:56:07;;;;;;;9.00;5.57;;;6.70;99.90;;;;;;6191897;23;20427;-89
2021/10/25 00:58:34;;;;;;;9.00;5.30;;;6.70;99.90;;;;;;6217060;23;20000;-89
2021/10/25 01:01:03;;;;;;;8.10;5.55;;;6.70;99.90;;;;;;6215993;23;20019;-89
2021/10/25 01:03:31;;;;;;;7.00;5.03;;;6.70;99.90;;;;;;6215005;23;20011;-90
2021/10/25 01:06:00;;;;;;;6.95;5.10;;;6.70;99.90;;;;;;6243914;23;19992;-89
2021/10/25 01:08:30;;;;;;;6.75;4.80;;;6.70;99.90;;;;;;6243137;23;20000;-90
2021/10/25 01:11:01;;;;;;;8.50;5.00;;;6.70;99.90;;;;;;6216430;23;20320;-89
2021/10/25 01:13:29;;;;;;;6.80;4.97;;;6.60;99.90;;;;;;6217522;23;19996;-90
2021/10/25 01:15:55;;;;;;;8.52;5.35;;;6.60;99.90;;;;;;6217830;23;20000;-90
2021/10/25 01:18:21;;;;;;;9.38;6.53;;;6.60;99.90;;;;;;6243015;23;20063;-90
2021/10/25 01:20:49;;;;;;;7.95;5.93;;;6.70;99.90;;;;;;6217270;23;20013;-89
2021/10/25 01:23:15;;;;;;;11.45;7.80;;;6.70;99.90;;;;;;6217068;23;20008;-89
2021/10/25 01:25:45;;;;;;;11.30;7.05;;;6.70;99.90;;;;;;6242845;23;20042;-89
2021/10/25 01:28:12;;;;;;;9.70;6.93;;;6.70;99.90;;;;;;6215825;23;19996;-89
2021/10/25 01:30:39;;;;;;;9.40;7.07;;;6.80;99.90;;;;;;6220970;23;20027;-89
2021/10/25 01:33:10;;;;;;;10.48;6.75;;;6.80;99.90;;;;;;6246920;23;20427;-90
2021/10/25 01:35:40;;;;;;;10.30;6.78;;;6.80;99.90;;;;;;6220774;23;19992;-90
2021/10/25 01:38:09;;;;;;;9.25;6.55;;;6.80;99.90;;;;;;6246205;23;20007;-89
2021/10/25 01:40:35;;;;;;;9.10;6.13;;;6.80;99.90;;;;;;6219262;23;20004;-89
2021/10/25 01:43:02;;;;;;;10.20;7.20;;;6.80;99.90;;;;;;6220610;23;20111;-89
2021/10/25 01:45:30;;;;;;;12.15;7.68;;;6.80;99.90;;;;;;6221779;22;20111;-89
2021/10/25 01:47:56;;;;;;;9.20;6.55;;;6.80;99.90;;;;;;6222559;23;20065;-89
2021/10/25 01:50:24;;;;;;;8.82;6.30;;;6.80;99.90;;;;;;6222635;23;20082;-89
2021/10/25 01:52:51;;;;;;;9.02;6.82;;;6.80;99.90;;;;;;6222633;23;19996;-88
2021/10/25 01:55:18;;;;;;;9.10;6.05;;;6.80;99.90;;;;;;6222485;23;20000;-89
2021/10/25 01:57:44;;;;;;;7.93;5.38;;;6.80;99.90;;;;;;6222272;23;20397;-89
2021/10/25 02:00:11;;;;;;;8.60;5.40;;;6.90;99.90;;;;;;6249440;23;20000;-89
2021/10/25 02:02:37;;;;;;;8.70;5.50;;;7.00;99.90;;;;;;6196145;23;20100;-90
2021/10/25 02:05:03;;;;;;;7.10;5.15;;;7.10;99.90;;;;;;6220280;23;19996;-89
2021/10/25 02:07:29;;;;;;;8.23;6.10;;;7.20;99.90;;;;;;6220864;23;20000;-90
2021/10/25 02:09:55;;;;;;;9.02;5.70;;;7.40;99.90;;;;;;6248944;23;20003;-90
2021/10/25 02:12:21;;;;;;;7.82;5.75;;;7.40;99.90;;;;;;6220595;23;20024;-90
2021/10/25 02:14:48;;;;;;;10.23;6.35;;;7.50;99.90;;;;;;6222236;23;20043;-90
2021/10/25 02:17:15;;;;;;;9.10;6.20;;;7.50;99.90;;;;;;6220715;23;19992;-89
2021/10/25 02:19:40;;;;;;;8.88;6.88;;;7.60;99.90;;;;;;6248590;23;20058;-90
2021/10/25 02:22:07;;;;;;;9.43;5.50;;;7.70;99.90;;;;;;6248064;23;20023;-89
2021/10/25 02:24:33;;;;;;;9.98;5.60;;;7.70;99.90;;;;;;6221388;23;20478;-89
2021/10/25 02:27:03;;;;;;;7.80;5.30;;;7.80;99.90;;;;;;6249735;23;20008;-90
2021/10/25 02:29:35;;;;;;;8.48;5.97;;;7.80;99.90;;;;;;6250315;23;20046;-89
2021/10/25 02:32:01;;;;;;;7.85;5.78;;;7.80;99.90;;;;;;6223848;23;20000;-90
2021/10/25 02:34:27;;;;;;;7.38;5.40;;;7.90;99.90;;;;;;6221194;23;20054;-90
2021/10/25 02:36:53;;;;;;;9.65;5.30;;;7.90;99.90;;;;;;6221608;23;20000;-89
2021/10/25 02:39:19;;;;;;;8.30;6.05;;;7.90;99.90;;;;;;6221979;23;20083;-90
2021/10/25 02:41:45;;;;;;;7.30;5.35;;;8.00;99.90;;;;;;6248078;23;20000;-90
2021/10/25 02:44:10;;;;;;;8.25;5.80;;;8.00;99.90;;;;;;6196737;23;20087;-89
2021/10/25 02:46:37;;;;;;;10.57;6.82;;;8.10;99.90;;;;;;6221268;23;20004;-89
2021/10/25 02:49:03;;;;;;;9.25;5.85;;;8.10;99.90;;;;;;6197196;23;20412;-89
2021/10/25 02:51:29;;;;;;;7.22;5.63;;;8.10;99.90;;;;;;6221640;23;20000;-89
2021/10/25 02:53:57;;;;;;;7.75;5.60;;;8.10;99.90;;;;;;6196937;23;19996;-89
2021/10/25 02:56:23;;;;;;;9.77;5.20;;;8.20;99.90;;;;;;6220785;23;20000;-89
2021/10/25 02:58:51;;;;;;;8.35;4.95;;;8.20;99.90;;;;;;6248207;23;20420;-89
2021/10/25 03:01:17;;;;;;;8.32;5.68;;;8.20;99.90;;;;;;6171013;23;20001;-90
2021/10/25 03:03:43;;;;;;;8.77;5.45;;;8.20;99.90;;;;;;6221228;23;20063;-89
2021/10/25 03:06:11;;;;;;;6.53;4.90;;;8.20;99.90;;;;;;6247493;23;19997;-90
2021/10/25 03:08:37;;;;;;;8.38;5.45;;;8.30;99.90;;;;;;6221673;23;20083;-90
2021/10/25 03:11:03;;;;;;;8.50;5.80;;;8.30;99.90;;;;;;6222054;23;20012;-89
2021/10/25 03:13:29;;;;;;;9.18;5.88;;;8.30;99.90;;;;;;6196313;23;20009;-89
2021/10/25 03:15:55;;;;;;;9.82;6.18;;;8.30;99.90;;;;;;6221395;23;20008;-90
2021/10/25 03:18:22;;;;;;;7.93;5.78;;;8.30;99.90;;;;;;6196373;23;20004;-90
2021/10/25 03:20:48;;;;;;;8.98;6.20;;;8.30;99.90;;;;;;6221952;23;20004;-89
2021/10/25 03:23:15;;;;;;;7.82;5.75;;;8.40;99.90;;;;;;6248153;23;19996;-89
2021/10/25 03:25:41;;;;;;;7.13;5.35;;;8.40;99.90;;;;;;6196059;23;20015;-90
2021/10/25 03:28:08;;;;;;;9.18;5.55;;;8.40;99.90;;;;;;6221345;23;20071;-90
2021/10/25 03:30:34;;;;;;;8.40;5.28;;;8.40;99.90;;;;;;6221582;23;19992;-90
2021/10/25 03:33:01;;;;;;;6.75;4.80;;;8.40;99.90;;;;;;6247989;23;20004;-88
2021/10/25 03:35:28;;;;;;;7.75;5.40;;;8.40;99.90;;;;;;6247991;23;20046;-90
2021/10/25 03:37:56;;;;;;;6.53;4.53;;;8.40;99.90;;;;;;6222011;23;20000;-89
2021/10/25 03:40:23;;;;;;;6.95;4.50;;;8.40;99.90;;;;;;6221426;23;20336;-90
2021/10/25 03:42:51;;;;;;;7.65;4.78;;;8.50;99.90;;;;;;6221113;23;20003;-89
2021/10/25 03:50:43;;;;;;;7.20;5.00;;;8.50;99.90;;;;;;6161882;23;20000;-90
2021/10/25 03:53:36;;;;;;;7.65;4.70;;;8.50;99.90;;;;;;6221364;23;20004;-89
2021/10/25 03:56:12;;;;;;;7.82;4.25;;;8.60;99.90;;;;;;6247426;23;20067;-89
2021/10/25 04:01:34;;;;;;;5.80;4.00;;;8.60;99.90;;;;;;6221861;23;20111;-89
2021/10/25 04:12:47;;;;;;;7.85;4.57;;;8.60;99.90;;;;;;6221227;23;20012;-90
2021/10/25 04:28:49;;;;;;;6.10;3.72;;;8.70;99.90;;;;;;6247762;23;20286;-89
2021/10/25 04:31:15;;;;;;;5.80;3.65;;;8.70;99.90;;;;;;6220544;23;19992;-89
2021/10/25 04:33:47;;;;;;;6.28;3.92;;;8.70;99.90;;;;;;6221274;23;19996;-89
2021/10/25 04:36:13;;;;;;;6.03;3.58;;;8.70;99.90;;;;;;6221381;23;19996;-90
2021/10/25 04:38:39;;;;;;;5.80;3.60;;;8.70;99.90;;;;;;6220856;23;20011;-89
2021/10/25 04:41:05;;;;;;;6.03;4.07;;;8.80;99.90;;;;;;6220602;23;19996;-90
2021/10/25 04:43:30;;;;;;;6.63;4.15;;;8.80;99.90;;;;;;6195930;23;20000;-90
2021/10/25 04:45:56;;;;;;;7.13;4.55;;;8.80;99.90;;;;;;6220234;23;20087;-89
2021/10/25 04:48:24;;;;;;;7.00;3.90;;;8.80;99.90;;;;;;6221055;23;20439;-90
2021/10/25 04:50:50;;;;;;;6.38;3.72;;;8.80;99.90;;;;;;6220670;23;20000;-90
2021/10/25 04:53:16;;;;;;;7.30;4.25;;;8.80;99.90;;;;;;6247468;23;19999;-89
2021/10/25 04:55:42;;;;;;;8.40;4.85;;;8.80;99.90;;;;;;6220864;23;20027;-90
2021/10/25 04:58:07;;;;;;;6.97;4.70;;;8.90;99.90;;;;;;6220792;23;20076;-89
2021/10/25 05:00:33;;;;;;;8.38;5.10;;;8.90;99.90;;;;;;6220761;23;20355;-90
2021/10/25 05:03:00;;;;;;;7.25;4.65;;;8.90;99.90;;;;;;6220365;23;20301;-90
2021/10/25 05:05:27;;;;;;;6.13;4.43;;;8.90;99.90;;;;;;6165853;23;20321;-90
2021/10/25 05:07:54;;;;;;;6.15;4.45;;;8.90;99.90;;;;;;6209300;23;20009;-89
2021/10/25 05:10:19;;;;;;;5.95;4.13;;;8.90;99.90;;;;;;6195960;23;20051;-90
2021/10/25 05:12:45;;;;;;;9.20;4.65;;;8.90;99.90;;;;;;6220784;23;19993;-90
2021/10/25 05:15:11;;;;;;;8.00;4.80;;;9.00;99.90;;;;;;6220744;23;19996;-90
2021/10/25 05:17:36;;;;;;;6.18;4.35;;;9.00;99.90;;;;;;6221599;23;20000;-90
2021/10/25 05:20:04;;;;;;;8.45;4.97;;;9.00;99.90;;;;;;6222570;23;20000;-91
2021/10/25 05:22:30;;;;;;;7.82;5.25;;;9.10;99.90;;;;;;6222914;23;20408;-91
2021/10/25 05:24:57;;;;;;;5.65;4.32;;;9.00;99.90;;;;;;6249515;23;20050;-90
2021/10/25 05:27:24;;;;;;;8.23;4.72;;;9.10;99.90;;;;;;6197796;23;20058;-90
2021/10/25 05:29:51;;;;;;;8.65;5.15;;;9.10;99.90;;;;;;6222270;23;20378;-89
2021/10/25 05:32:17;;;;;;;9.45;5.20;;;9.10;99.90;;;;;;6222703;23;20028;-90
2021/10/25 05:34:43;;;;;;;11.30;5.93;;;9.20;99.90;;;;;;6222624;23;19997;-90
2021/10/25 05:37:10;;;;;;;9.98;5.60;;;9.20;99.90;;;;;;6222665;23;20003;-90
2021/10/25 05:39:37;;;;;;;8.27;5.88;;;9.20;99.90;;;;;;6197256;23;20038;-90
2021/10/25 05:42:07;;;;;;;9.43;4.88;;;9.20;99.90;;;;;;6197291;23;20008;-90
2021/10/25 05:44:34;;;;;;;8.02;4.63;;;9.20;99.90;;;;;;6222805;23;20000;-89
2021/10/25 05:47:00;;;;;;;9.23;5.47;;;9.20;99.90;;;;;;6223649;23;20067;-90
2021/10/25 05:49:26;;;;;;;7.45;5.30;;;9.20;99.90;;;;;;6222624;23;20007;-90
2021/10/25 05:51:54;;;;;;;8.85;5.05;;;9.30;99.90;;;;;;6222592;23;20000;-90
2021/10/25 05:54:20;;;;;;;9.95;5.97;;;9.30;99.90;;;;;;6222522;23;20000;-90
2021/10/25 05:56:47;;;;;;;8.23;5.53;;;9.30;99.90;;;;;;6197457;23;20355;-90
2021/10/25 05:59:13;;;;;;;7.50;4.63;;;9.30;99.90;;;;;;6222570;23;20375;-90
2021/10/25 06:01:42;;;;;;;8.85;5.03;;;9.30;99.90;;;;;;6222268;23;19996;-89
2021/10/25 06:04:13;;;;;;;8.30;4.43;;;9.30;99.90;;;;;;6230421;23;20035;-89
2021/10/25 06:06:48;;;;;;;6.97;3.45;;;9.30;99.90;;;;;;6226151;23;20004;-90
2021/10/25 06:09:16;;;;;;;7.25;4.00;;;9.40;99.90;;;;;;6225314;23;19996;-89
2021/10/25 06:11:42;;;;;;;6.45;3.33;;;9.40;99.90;;;;;;6223977;23;20071;-89
2021/10/25 06:14:10;;;;;;;6.43;3.78;;;9.40;99.90;;;;;;6225079;23;20023;-90
2021/10/25 06:16:40;;;;;;;5.95;3.58;;;9.40;99.90;;;;;;6224373;23;19992;-89
2021/10/25 06:19:10;;;;;;;7.72;4.57;;;9.40;99.90;;;;;;6223120;23;20062;-90
2021/10/25 06:21:43;;;;;;;7.88;5.25;;;9.40;99.90;;;;;;6249579;23;20010;-90
2021/10/25 06:24:08;;;;;;;8.77;5.00;;;9.40;99.90;;;;;;6225326;23;20016;-90
2021/10/25 06:26:36;;;;;;;10.80;5.85;;;9.40;99.90;;;;;;6199388;23;20376;-89
2021/10/25 06:29:02;;;;;;;9.68;5.03;;;9.40;99.90;;;;;;6200469;23;20000;-90
2021/10/25 06:31:28;;;;;;;8.68;5.22;;;9.40;99.90;;;;;;6222251;23;20011;-90
2021/10/25 06:33:54;;;;;;;10.48;6.22;;;9.40;99.90;;;;;;6222223;23;19997;-90
2021/10/25 06:36:22;;;;;;;12.15;6.30;;;9.40;99.90;;;;;;6221989;23;20004;-89
2021/10/25 06:41:16;;;;;;;12.35;6.63;;;9.50;99.90;;;;;;6248804;23;20087;-90
2021/10/25 06:43:42;;;;;;;8.55;5.70;;;9.50;99.90;;;;;;6220917;23;19996;-90
2021/10/25 06:46:08;;;;;;;9.80;6.22;;;9.50;99.90;;;;;;6219993;23;20065;-90
2021/10/25 06:48:34;;;;;;;9.52;5.32;;;9.50;99.90;;;;;;6219764;23;19996;-90
2021/10/25 06:50:59;;;;;;;12.40;6.38;;;9.50;99.90;;;;;;6220859;23;20007;-90
2021/10/25 06:53:25;;;;;;;10.20;6.53;;;9.50;99.90;;;;;;6220139;23;19996;-90
2021/10/25 06:55:51;;;;;;;11.15;5.75;;;9.60;99.90;;;;;;6219919;23;20006;-90
2021/10/25 06:58:19;;;;;;;8.52;6.03;;;9.60;99.90;;;;;;6220218;23;19997;-90
2021/10/25 07:00:45;;;;;;;13.60;6.20;;;9.60;99.90;;;;;;6220195;23;20027;-89
2021/10/25 07:03:14;;;;;;;10.88;5.97;;;9.60;99.90;;;;;;6219847;23;19999;-89
2021/10/25 07:05:43;;;;;;;9.43;7.07;;;9.70;99.90;;;;;;6220194;23;20000;-89
2021/10/25 07:08:10;;;;;;;11.85;6.20;;;9.70;99.90;;;;;;6220185;23;20004;-89
2021/10/25 07:10:38;;;;;;;10.60;5.28;;;9.70;99.90;;;;;;6220159;23;20103;-89
2021/10/25 07:13:05;;;;;;;8.73;5.72;;;9.80;99.90;;;;;;6220168;23;20015;-90
2021/10/25 07:15:33;;;;;;;8.82;5.32;;;9.80;99.90;;;;;;6220674;23;19996;-89
2021/10/25 07:23:41;;;;;;;9.88;5.45;;;9.90;99.90;;;;;;6246100;23;20069;-89
2021/10/25 07:26:51;;;;;;;9.27;5.45;;;9.90;99.90;;;;;;6219838;23;20000;-89
2021/10/25 08:03:20;;;;;;;7.38;4.57;;;10.00;99.90;;;;;;6258050;23;19996;-89
2021/10/25 08:07:57;;;;;;;8.80;5.15;;;10.00;99.90;;;;;;6248036;23;20071;-89
2021/10/25 08:10:26;;;;;;;6.45;4.47;;;10.10;99.90;;;;;;6221397;23;20000;-90
2021/10/25 08:12:56;;;;;;;6.68;4.72;;;10.10;99.90;;;;;;6197111;23;20058;-90
2021/10/25 08:15:32;;;;;;;7.07;4.53;;;10.20;99.90;;;;;;6221256;23;19992;-90
2021/10/25 08:18:01;;;;;;;6.30;4.07;;;10.30;99.90;;;;;;6198431;23;20007;-90
2021/10/25 08:20:35;;;;;;;6.47;4.43;;;10.40;99.90;;;;;;6220816;23;20083;-89
2021/10/25 08:23:01;;;;;;;6.78;4.53;;;10.40;99.90;;;;;;6247741;23;19992;-89
2021/10/25 08:25:26;;;;;;;8.70;5.63;;;10.40;99.90;;;;;;6221143;23;20003;-89
2021/10/25 08:27:53;;;;;;;8.77;5.60;;;10.40;99.90;;;;;;6220830;23;19996;-90
2021/10/25 08:30:27;;;;;;;7.10;5.00;;;10.50;99.90;;;;;;6248781;23;20487;-89
2021/10/25 08:41:24;;;;;;;7.80;5.07;;;10.50;99.90;;;;;;6227295;23;20064;-90
2021/10/25 08:43:52;;;;;;;8.15;5.57;;;10.50;99.90;;;;;;6222076;23;19992;-90
2021/10/25 08:46:20;;;;;;;6.88;5.20;;;10.50;99.90;;;;;;6198077;23;20043;-90
2021/10/25 08:48:49;;;;;;;7.38;5.15;;;10.50;99.90;;;;;;6250179;23;20000;-90
2021/10/25 08:51:17;;;;;;;8.40;5.10;;;10.60;99.90;;;;;;6222166;23;20001;-90
2021/10/25 08:53:43;;;;;;;6.57;5.30;;;10.60;99.90;;;;;;6197579;23;20079;-89
2021/10/25 08:56:18;;;;;;;7.97;5.47;;;10.60;99.90;;;;;;6249138;23;19999;-90
2021/10/25 08:58:48;;;;;;;6.78;5.00;;;10.60;99.90;;;;;;6222027;23;20011;-90
2021/10/25 09:01:31;;;;;;;8.90;5.07;;;10.60;99.90;;;;;;6198279;23;20000;-89
2021/10/25 09:04:12;;;;;;;6.63;4.43;;;10.70;99.90;;;;;;6222521;23;20043;-89
2021/10/25 09:06:56;;;;;;;8.93;5.45;;;10.70;99.90;;;;;;6224352;23;20336;-90
2021/10/25 09:09:23;;;;;;;8.75;5.18;;;10.80;99.90;;;;;;6222502;23;20010;-90
2021/10/25 09:12:08;;;;;;;8.40;4.78;;;10.80;99.90;;;;;;6221518;23;20019;-89
2021/10/25 09:14:35;;;;;;;6.78;4.82;;;10.80;99.90;;;;;;6222529;23;20004;-90
2021/10/25 09:17:09;;;;;;;7.63;5.30;;;10.80;99.90;;;;;;6223513;23;20287;-91
2021/10/25 09:19:41;;;;;;;7.45;5.20;;;10.90;99.90;;;;;;6222729;23;20008;-90
2021/10/25 09:22:13;;;;;;;8.05;5.25;;;10.90;99.90;;;;;;6193258;23;20405;-90
2021/10/25 09:24:40;;;;;;;7.82;4.97;;;10.90;99.90;;;;;;6220935;23;20028;-90
2021/10/25 09:27:09;;;;;;;8.93;5.22;;;11.00;99.90;;;;;;6220655;23;20311;-90
2021/10/25 09:29:39;;;;;;;8.57;4.88;;;11.00;99.90;;;;;;6221351;23;19992;-90
2021/10/25 09:32:10;;;;;;;6.30;4.72;;;11.00;99.90;;;;;;6247419;23;19992;-90
2021/10/25 09:34:52;;;;;;;6.88;4.57;;;11.00;99.90;;;;;;6198306;23;20004;-90
2021/10/25 09:37:27;;;;;;;9.00;5.35;;;11.10;99.90;;;;;;6200947;23;20007;-89
2021/10/25 09:40:00;;;;;;;7.50;5.32;;;11.20;99.90;;;;;;6222346;23;20058;-89
2021/10/25 09:46:02;;;;;;;9.30;4.88;;;11.20;99.90;;;;;;6250040;23;20004;-90
2021/10/25 09:50:55;;;;;;;6.60;4.88;;;11.30;99.90;;;;;;6219104;23;20087;-89
2021/10/25 09:53:39;;;;;;;8.23;5.20;;;11.30;99.90;;;;;;6220267;23;20001;-90
2021/10/25 09:56:10;;;;;;;9.77;5.68;;;11.30;99.90;;;;;;6186312;23;20058;-90
2021/10/25 09:59:07;;;;;;;9.35;5.70;;;11.30;99.90;;;;;;6218311;23;20008;-89
2021/10/25 10:01:30;;;;;;;8.52;5.63;;;11.40;99.90;;;;;;6217019;23;20393;-90
2021/10/25 10:03:56;;;;;;;8.85;5.53;;;11.40;99.90;;;;;;6193052;23;20007;-90
2021/10/25 10:06:21;;;;;;;7.30;4.78;;;11.50;99.90;;;;;;6220218;23;20077;-89
2021/10/25 10:08:49;;;;;;;10.30;5.97;;;11.40;99.90;;;;;;6194361;23;20125;-89
2021/10/25 10:11:19;;;;;;;8.30;4.95;;;11.40;99.90;;;;;;6194581;23;19992;-89
2021/10/25 10:13:45;;;;;;;6.97;5.25;;;11.40;99.90;;;;;;6193992;23;19998;-89
2021/10/25 10:16:14;;;;;;;8.95;5.28;;;11.40;99.90;;;;;;6193935;23;20055;-90
2021/10/25 10:19:10;;;;;;;9.13;6.10;;;11.40;99.90;;;;;;6169462;23;20004;-89
2021/10/25 10:21:38;;;;;;;10.52;5.57;;;11.40;99.90;;;;;;6193885;23;20047;-90
2021/10/25 10:24:10;;;;;;;7.88;4.70;;;11.40;99.90;;;;;;6193244;23;20047;-90
2021/10/25 10:26:38;;;;;;;7.03;5.07;;;11.50;99.90;;;;;;6194042;23;20031;-90
2021/10/25 10:29:20;;;;;;;8.68;5.00;;;11.40;99.90;;;;;;6193823;23;20072;-89
2021/10/25 10:32:03;;;;;;;7.60;4.10;;;11.50;99.90;;;;;;6192521;23;20420;-90
2021/10/25 10:35:04;;;;;;;6.32;3.97;;;11.50;99.90;;;;;;6220676;23;20479;-89
2021/10/25 10:37:44;;;;;;;6.25;3.60;;;11.60;99.90;;;;;;6194205;23;20047;-90
2021/10/25 10:40:18;;;;;;;7.25;4.10;;;11.70;99.90;;;;;;6219381;23;20397;-89
2021/10/25 10:43:29;;;;;;;8.77;5.40;;;11.70;99.90;;;;;;6194634;23;19996;-89
2021/10/25 10:46:18;;;;;;;7.30;4.65;;;11.80;99.90;;;;;;6221971;23;20008;-90
2021/10/25 10:48:53;;;;;;;9.20;4.72;;;11.80;99.90;;;;;;6196041;23;20005;-90
2021/10/25 10:51:32;;;;;;;8.65;5.45;;;11.80;99.90;;;;;;6171752;23;20001;-89
2021/10/25 10:54:19;;;;;;;7.93;5.00;;;11.80;99.90;;;;;;6169318;23;20009;-89
2021/10/25 10:56:58;;;;;;;7.72;4.68;;;11.90;99.90;;;;;;6193009;23;20004;-89
2021/10/25 10:59:35;;;;;;;8.30;5.00;;;11.90;99.90;;;;;;6193912;23;20008;-89
2021/10/25 11:02:02;;;;;;;7.60;4.97;;;11.90;99.90;;;;;;6223507;23;19992;-89
2021/10/25 11:04:33;;;;;;;6.80;4.75;;;12.00;99.90;;;;;;6172584;23;20159;-90
2021/10/25 11:07:54;;;;;;;7.70;5.22;;;11.90;99.90;;;;;;6195473;23;19997;-89
2021/10/25 11:10:42;;;;;;;6.72;4.70;;;12.00;99.90;;;;;;6110832;23;20011;-90
2021/10/25 11:13:17;;;;;;;6.18;4.72;;;12.00;99.90;;;;;;6193694;23;19993;-89
2021/10/25 11:15:56;;;;;;;7.50;4.78;;;12.00;99.90;;;;;;6190886;23;20007;-88
2021/10/25 11:18:37;;;;;;;6.80;4.30;;;12.10;99.90;;;;;;6190646;23;20001;-88
2021/10/25 11:21:41;;;;;;;10.15;5.20;;;12.10;99.90;;;;;;6166856;23;20016;-88
2021/10/25 11:24:25;;;;;;;7.25;4.90;;;12.20;99.90;;;;;;6191574;23;20087;-88
2021/10/25 11:26:58;;;;;;;8.57;4.60;;;12.20;99.90;;;;;;6217724;23;20003;-88
2021/10/25 11:29:27;;;;;;;6.45;4.63;;;12.30;99.90;;;;;;6192072;23;20067;-89
2021/10/25 11:32:21;;;;;;;7.28;4.82;;;12.40;99.90;;;;;;6191419;23;20000;-88
2021/10/25 11:35:12;;;;;;;7.80;4.32;;;12.40;99.90;;;;;;6214553;23;20027;-88
2021/10/25 11:37:51;;;;;;;7.13;4.72;;;12.60;99.90;;;;;;6189426;23;20001;-88
2021/10/25 11:40:22;;;;;;;8.20;5.55;;;12.80;99.90;;;;;;6188948;23;20009;-88
2021/10/25 11:42:56;;;;;;;7.50;4.90;;;12.80;99.90;;;;;;6217373;23;20000;-88
2021/10/25 11:45:33;;;;;;;;;;;12.90;99.90;;;;;;6191836;23;20409;-88
2021/10/25 11:47:59;;;;;;;7.32;4.70;;;12.90;99.90;;;;;;6219362;23;20200;-88
2021/10/25 11:50:28;;;;;;;8.23;3.95;;;13.10;99.90;;;;;;6221162;23;20346;-89
2021/10/25 11:53:01;;;;;;;6.30;4.68;;;13.20;99.90;;;;;;6196399;23;20047;-89
2021/10/25 11:55:40;;;;;;;8.13;4.53;;;13.20;99.90;;;;;;6221248;23;20051;-89
2021/10/25 11:58:23;;;;;;;8.13;4.93;;;13.10;99.90;;;;;;6196784;23;20066;-88
2021/10/25 12:00:52;;;;;;;9.20;4.25;;;13.10;99.90;;;;;;6221169;23;20067;-88
2021/10/25 12:03:22;;;;;;;6.43;3.75;;;13.10;99.90;;;;;;6248101;23;20085;-90
2021/10/25 12:05:49;;;;;;;7.60;5.00;;;13.40;99.90;;;;;;6197012;23;20443;-88
2021/10/25 12:08:19;;;;;;;6.68;4.28;;;14.00;99.90;;;;;;6171288;23;20000;-89
2021/10/25 12:10:48;;;;;;;7.35;5.07;;;14.80;99.90;;;;;;6221135;23;20003;-90
2021/10/25 12:13:15;;;;;;;5.93;4.15;;;15.70;99.90;;;;;;6220483;23;20019;-90
2021/10/25 12:15:51;;;;;;;7.07;4.32;;;16.50;99.90;;;;;;6220794;23;20083;-89
2021/10/25 12:18:19;;;;;;;9.88;5.40;;;16.70;99.90;;;;;;6220335;23;19996;-89
2021/10/25 12:20:49;;;;;;;5.03;3.78;;;16.40;99.90;;;;;;6220212;23;20429;-90
2021/10/25 12:23:18;;;;;;;6.38;4.32;;;16.10;99.90;;;;;;6221817;23;20393;-89
2021/10/25 12:26:05;;;;;;;5.63;3.35;;;15.80;99.90;;;;;;6220963;23;20404;-88
2021/10/25 12:28:37;;;;;;;7.30;3.83;;;16.10;99.90;;;;;;6220711;23;20004;-89
2021/10/25 12:31:20;;;;;;;6.10;3.65;;;17.30;99.90;;;;;;6220437;23;20023;-89
2021/10/25 12:33:51;;;;;;;;;;;17.70;99.90;;;;;;6197348;23;20000;-90
2021/10/25 12:36:32;;;;;;;6.45;3.90;;;17.40;99.90;;;;;;6220722;23;19967;-89
2021/10/25 12:38:59;;;;;;;6.97;3.75;;;17.20;99.90;;;;;;6220689;23;20127;-88
2021/10/25 12:41:26;;;;;;;6.80;4.05;;;16.70;99.90;;;;;;6247568;23;20051;-89
2021/10/25 12:43:59;;;;;;;5.03;3.58;;;16.30;99.90;;;;;;6226245;23;20147;-89
2021/10/25 12:46:33;;;;;;;7.28;4.03;;;15.90;99.90;;;;;;6220681;23;20019;-89
2021/10/25 12:49:00;;;;;;;5.80;3.53;;;15.70;99.90;;;;;;6220858;23;20027;-88
2021/10/25 12:51:38;;;;;;;6.00;3.80;;;15.60;99.90;;;;;;6219512;23;20412;-89
2021/10/25 12:54:16;;;;;;;8.38;3.58;;;15.70;99.90;;;;;;6220944;23;19992;-90
2021/10/25 12:56:44;;;;;;;5.57;3.60;;;15.70;99.90;;;;;;6220242;23;20007;-88
2021/10/25 12:59:13;;;;;;;4.95;3.45;;;15.80;99.90;;;;;;6220090;23;20103;-89
2021/10/25 13:01:57;;;;;;;5.18;3.40;;;15.70;99.90;;;;;;6244627;23;20091;-89
2021/10/25 13:04:26;;;;;;;5.82;3.47;;;15.60;99.90;;;;;;6214748;23;19997;-88
2021/10/25 13:06:55;;;;;;;5.38;3.40;;;15.60;99.90;;;;;;6216626;23;19999;-88
2021/10/25 13:09:21;;;;;;;5.50;2.78;;;15.50;99.90;;;;;;6215961;23;20004;-88
2021/10/25 13:11:48;;;;;;;5.65;4.10;;;15.60;99.90;;;;;;6216722;23;20083;-90
2021/10/25 13:14:14;;;;;;;8.05;4.47;;;15.70;99.90;;;;;;6216628;23;20070;-89
2021/10/25 13:16:44;;;;;;;8.18;4.65;;;15.90;99.90;;;;;;6216932;23;20372;-89
2021/10/25 13:19:14;;;;;;;6.60;4.72;;;16.10;99.90;;;;;;6216616;23;20072;-89
2021/10/25 13:21:42;;;;;;;5.78;3.95;;;16.00;99.90;;;;;;6216840;23;20082;-89
2021/10/25 13:24:09;;;;;;;6.07;3.72;;;16.10;99.90;;;;;;6216087;23;20015;-89
2021/10/25 13:26:37;;;;;;;4.45;3.13;;;16.40;99.90;;;;;;6217302;23;20001;-89
2021/10/25 13:29:08;;;;;;;5.78;3.60;;;16.60;99.90;;;;;;6242991;23;20436;-89
2021/10/25 13:31:35;;;;;;;7.40;3.25;;;16.50;99.90;;;;;;6216624;23;20072;-90
2021/10/25 13:34:01;;;;;;;4.72;3.72;;;16.40;99.90;;;;;;6243263;23;20807;-89
2021/10/25 13:36:27;;;;;;;5.80;3.90;;;16.10;99.90;;;;;;6216634;23;20006;-89
2021/10/25 13:38:54;;;;;;;6.03;3.70;;;15.90;99.90;;;;;;6243741;23;20016;-89
2021/10/25 13:41:21;;;;;;;7.07;4.18;;;15.70;99.90;;;;;;6218763;23;20344;-89
2021/10/25 13:43:49;;;;;;;8.10;4.75;;;15.50;99.90;;;;;;6221414;23;20026;-89
2021/10/25 13:46:16;;;;;;;6.78;3.80;;;15.30;99.90;;;;;;6248621;22;20012;-88
2021/10/25 13:48:42;;;;;;;5.47;3.63;;;15.30;99.90;;;;;;6221593;23;19992;-89
2021/10/25 13:51:11;;;;;;;7.50;4.55;;;15.40;99.90;;;;;;6221910;23;20011;-89
2021/10/25 13:53:37;;;;;;;6.22;3.92;;;15.50;99.90;;;;;;6222298;23;20000;-89
2021/10/25 13:56:07;;;;;;;7.68;4.55;;;15.60;99.90;;;;;;6249245;23;20278;-89
2021/10/25 13:58:34;;;;;;;5.68;4.07;;;15.70;99.90;;;;;;6221132;23;20381;-88
2021/10/25 14:01:00;;;;;;;6.20;4.10;;;15.80;99.90;;;;;;6221808;23;20058;-89
2021/10/25 14:03:27;;;;;;;5.25;3.47;;;15.80;99.90;;;;;;6223350;23;19996;-89
2021/10/25 14:05:54;;;;;;;6.38;3.78;;;15.80;99.90;;;;;;6222451;23;19996;-88
2021/10/25 14:08:20;;;;;;;6.65;4.28;;;15.70;99.90;;;;;;6222981;23;20408;-88
2021/10/25 14:10:49;;;;;;;7.93;5.28;;;15.60;99.90;;;;;;6249516;23;20075;-89
2021/10/25 14:13:24;;;;;;;7.82;4.72;;;15.50;99.90;;;;;;6222451;23;20353;-88
2021/10/25 14:16:07;;;;;;;8.48;5.20;;;15.40;99.90;;;;;;6222214;23;20069;-89
2021/10/25 14:18:35;;;;;;;8.43;5.77;;;15.30;99.90;;;;;;6222305;23;20054;-89
2021/10/25 14:21:02;;;;;;;7.32;4.78;;;15.10;99.90;;;;;;6222648;23;20034;-88
2021/10/25 14:23:31;;;;;;;6.47;4.20;;;15.00;99.90;;;;;;6222643;23;20000;-89
2021/10/25 14:25:57;;;;;;;6.13;4.10;;;14.90;99.90;;;;;;6225222;23;20003;-88
2021/10/25 14:28:28;;;;;;;6.32;4.22;;;14.90;99.90;;;;;;6225286;23;20087;-89
2021/10/25 14:30:55;;;;;;;6.43;4.65;;;14.90;99.90;;;;;;6222276;23;19996;-89
2021/10/25 14:33:21;;;;;;;6.72;4.78;;;14.80;99.90;;;;;;6221904;23;19996;-88
2021/10/25 14:35:48;;;;;;;6.45;4.40;;;14.80;99.90;;;;;;6222449;23;20004;-88
2021/10/25 14:41:18;;;;;;;6.72;4.85;;;14.70;99.90;;;;;;6199950;23;20070;-88